createdAt,value
2022-08-28T00:02:19.487Z,15.59
2022-08-28T00:04:49.224Z,15.39
2022-08-28T00:07:17.475Z,16.38
2022-08-28T00:09:45.634Z,15.85
2022-08-28T00:12:15.948Z,16.37
2022-08-28T00:14:44.383Z,16.34
2022-08-28T00:17:13.797Z,15.84
2022-08-28T00:19:41.911Z,15.32
2022-08-28T00:22:11.618Z,15.36
2022-08-28T00:24:39.731Z,15.51
2022-08-28T00:27:26.738Z,14.98
2022-08-28T00:29:55.055Z,15.44
2022-08-28T00:32:25.281Z,15.20
2022-08-28T00:34:53.958Z,14.92
2022-08-28T00:37:24.741Z,14.50
2022-08-28T00:39:54.012Z,14.61
2022-08-28T00:42:22.216Z,14.58
2022-08-28T00:44:51.147Z,14.77
2022-08-28T00:47:19.438Z,14.79
2022-08-28T00:49:50.423Z,14.74
2022-08-28T00:52:18.862Z,14.71
2022-08-28T00:54:59.095Z,14.71
2022-08-28T00:57:30.384Z,14.40
2022-08-28T00:59:58.674Z,14.74
2022-08-28T01:02:27.587Z,14.81
2022-08-28T01:04:56.076Z,14.83
2022-08-28T01:07:24.450Z,14.54
2022-08-28T01:09:55.816Z,14.70
2022-08-28T01:12:26.588Z,14.43
2022-08-28T01:14:58.657Z,14.58
2022-08-28T01:17:28.820Z,15.14
2022-08-28T01:19:59.338Z,15.26
2022-08-28T01:22:31.244Z,15.11
2022-08-28T01:25:03.500Z,14.61
2022-08-28T01:27:31.671Z,14.46
2022-08-28T01:29:59.995Z,14.50
2022-08-28T01:32:34.014Z,13.96
2022-08-28T01:35:03.187Z,13.62
2022-08-28T01:37:33.121Z,14.12
2022-08-28T01:40:04.940Z,13.52
2022-08-28T01:42:38.699Z,13.80
2022-08-28T01:45:11.447Z,13.61
2022-08-28T01:47:39.934Z,13.61
2022-08-28T01:50:09.319Z,13.82
2022-08-28T01:52:37.991Z,13.65
2022-08-28T01:55:08.972Z,13.63
2022-08-28T01:57:38.005Z,14.21
2022-08-28T02:00:07.396Z,14.16
2022-08-28T02:02:35.462Z,13.88
2022-08-28T02:05:03.651Z,13.95
2022-08-28T02:07:32.212Z,13.98
2022-08-28T02:10:00.368Z,13.94
2022-08-28T02:12:30.716Z,13.77
2022-08-28T02:14:58.749Z,13.92
2022-08-28T02:17:27.070Z,13.98
2022-08-28T02:19:55.568Z,13.87
2022-08-28T02:22:23.630Z,13.81
2022-08-28T02:24:51.741Z,13.63
2022-08-28T02:27:19.915Z,13.75
2022-08-28T02:29:51.635Z,13.91
2022-08-28T02:32:19.853Z,13.57
2022-08-28T02:34:48.229Z,14.12
2022-08-28T02:37:16.335Z,13.82
2022-08-28T02:39:44.829Z,13.81
2022-08-28T02:42:12.876Z,13.52
2022-08-28T02:44:42.659Z,13.53
2022-08-28T02:47:12.298Z,13.64
2022-08-28T02:49:40.488Z,13.59
2022-08-28T02:52:08.999Z,13.45
2022-08-28T02:54:38.774Z,13.72
2022-08-28T02:57:07.091Z,13.55
2022-08-28T02:59:35.365Z,13.53
2022-08-28T03:02:06.863Z,13.49
2022-08-28T03:04:37.007Z,13.36
2022-08-28T03:07:07.500Z,13.41
2022-08-28T03:09:37.510Z,13.55
2022-08-28T03:12:10.724Z,13.50
2022-08-28T03:14:38.784Z,13.74
2022-08-28T03:17:07.499Z,13.43
2022-08-28T03:19:36.928Z,13.72
2022-08-28T03:22:06.344Z,14.15
2022-08-28T03:24:33.490Z,14.39
2022-08-28T03:27:04.812Z,13.88
2022-08-28T03:29:33.715Z,13.86
2022-08-28T03:32:01.995Z,14.07
2022-08-28T03:34:31.803Z,13.79
2022-08-28T03:37:01.730Z,13.62
2022-08-28T03:39:29.965Z,13.52
2022-08-28T03:41:58.067Z,14.27
2022-08-28T03:44:29.248Z,13.94
2022-08-28T03:47:02.083Z,14.00
2022-08-28T03:49:31.207Z,14.52
2022-08-28T03:52:00.829Z,14.09
2022-08-28T03:54:31.777Z,14.61
2022-08-28T03:57:00.570Z,14.18
2022-08-28T03:59:33.609Z,13.43
2022-08-28T04:02:01.913Z,13.53
2022-08-28T04:04:30.152Z,13.96
2022-08-28T04:06:58.505Z,13.83
2022-08-28T04:09:28.003Z,14.15
2022-08-28T04:11:56.527Z,13.99
2022-08-28T04:14:24.694Z,13.89
2022-08-28T04:16:58.598Z,14.01
2022-08-28T04:19:29.831Z,13.95
2022-08-28T04:21:58.264Z,14.19
2022-08-28T04:24:27.950Z,13.97
2022-08-28T04:27:00.241Z,13.77
2022-08-28T04:29:32.030Z,13.53
2022-08-28T04:32:00.161Z,13.67
2022-08-28T04:34:28.330Z,13.63
2022-08-28T04:36:56.386Z,13.24
2022-08-28T04:39:24.690Z,13.41
2022-08-28T04:41:56.627Z,13.42
2022-08-28T04:44:24.767Z,13.27
2022-08-28T04:46:53.782Z,13.48
2022-08-28T04:49:22.234Z,13.31
2022-08-28T04:51:53.974Z,13.57
2022-08-28T04:54:22.680Z,13.79
2022-08-28T04:56:51.184Z,14.27
2022-08-28T04:59:22.210Z,13.82
2022-08-28T05:01:50.348Z,14.08
2022-08-28T05:04:19.867Z,14.23
2022-08-28T05:06:48.804Z,14.46
2022-08-28T05:09:19.704Z,14.67
2022-08-28T05:11:48.669Z,14.59
2022-08-28T05:14:17.863Z,14.11
2022-08-28T05:16:50.687Z,14.44
2022-08-28T05:19:19.984Z,14.70
2022-08-28T05:21:52.524Z,14.46
2022-08-28T05:24:21.445Z,14.71
2022-08-28T05:26:49.666Z,14.71
2022-08-28T05:29:18.083Z,14.69
2022-08-28T05:31:48.303Z,14.57
2022-08-28T05:34:20.766Z,14.91
2022-08-28T05:36:48.979Z,15.12
2022-08-28T05:39:18.644Z,14.72
2022-08-28T05:41:47.321Z,14.97
2022-08-28T05:44:16.816Z,15.00
2022-08-28T05:46:48.635Z,14.92
2022-08-28T05:49:17.949Z,15.14
2022-08-28T05:51:46.109Z,15.07
2022-08-28T05:54:15.014Z,14.92
2022-08-28T05:56:44.335Z,15.20
2022-08-28T05:59:16.115Z,15.26
2022-08-28T06:01:45.817Z,15.51
2022-08-28T06:04:18.098Z,15.45
2022-08-28T06:06:46.864Z,15.53
2022-08-28T06:09:19.696Z,15.46
2022-08-28T06:11:54.175Z,15.54
2022-08-28T06:14:22.844Z,15.54
2022-08-28T06:16:55.091Z,15.45
2022-08-28T06:19:26.312Z,15.33
2022-08-28T06:21:58.338Z,15.60
2022-08-28T06:24:27.221Z,15.32
2022-08-28T06:27:12.096Z,15.47
2022-08-28T06:29:43.328Z,15.58
2022-08-28T06:32:11.457Z,15.70
2022-08-28T06:34:41.045Z,15.67
2022-08-28T06:37:10.333Z,15.82
2022-08-28T06:39:38.373Z,15.80
2022-08-28T06:42:07.039Z,16.05
2022-08-28T06:44:45.588Z,16.18
2022-08-28T06:47:14.692Z,16.40
2022-08-28T06:49:44.093Z,16.41
2022-08-28T06:52:13.958Z,16.58
2022-08-28T06:54:41.941Z,16.55
2022-08-28T06:57:26.736Z,16.74
2022-08-28T06:59:56.926Z,16.80
2022-08-28T07:02:28.396Z,17.10
2022-08-28T07:04:58.146Z,17.28
2022-08-28T07:07:31.772Z,17.45
2022-08-28T07:10:03.092Z,17.04
2022-08-28T07:12:39.402Z,17.36
2022-08-28T07:15:13.513Z,17.63
2022-08-28T07:17:44.859Z,17.71
2022-08-28T07:20:15.164Z,17.75
2022-08-28T07:22:52.005Z,17.74
2022-08-28T07:25:28.864Z,17.74
2022-08-28T07:27:57.076Z,17.91
2022-08-28T07:30:25.144Z,18.29
2022-08-28T07:32:53.404Z,18.43
2022-08-28T07:35:23.227Z,18.54
2022-08-28T07:37:51.270Z,18.43
2022-08-28T07:40:22.224Z,18.05
2022-08-28T07:43:07.955Z,18.39
2022-08-28T07:45:36.537Z,18.69
2022-08-28T07:48:11.478Z,18.76
2022-08-28T07:50:44.104Z,18.99
2022-08-28T07:53:12.194Z,18.94
2022-08-28T07:55:40.189Z,18.70
2022-08-28T07:58:11.364Z,18.77
2022-08-28T08:00:39.396Z,18.80
2022-08-28T08:03:07.498Z,19.12
2022-08-28T08:05:35.592Z,19.33
2022-08-28T08:08:05.580Z,19.04
2022-08-28T08:10:34.371Z,19.14
2022-08-28T08:13:02.820Z,19.10
2022-08-28T08:15:31.505Z,19.36
2022-08-28T08:17:59.580Z,19.29
2022-08-28T08:20:27.911Z,19.30
2022-08-28T08:22:57.869Z,19.67
2022-08-28T08:25:30.318Z,19.68
2022-08-28T08:28:03.629Z,19.47
2022-08-28T08:30:34.399Z,19.67
2022-08-28T08:33:05.025Z,20.00
2022-08-28T08:35:33.166Z,20.07
2022-08-28T08:38:13.404Z,20.20
2022-08-28T08:40:43.009Z,20.00
2022-08-28T08:43:11.181Z,20.21
2022-08-28T08:45:46.881Z,20.52
2022-08-28T08:48:22.875Z,20.01
2022-08-28T08:50:50.977Z,20.02
2022-08-28T08:53:25.753Z,20.26
2022-08-28T08:55:56.975Z,19.48
2022-08-28T08:58:28.655Z,19.44
2022-08-28T09:01:01.979Z,19.76
2022-08-28T09:03:45.348Z,19.45
2022-08-28T09:06:23.085Z,20.20
2022-08-28T09:09:00.871Z,20.14
2022-08-28T09:11:44.771Z,20.08
2022-08-28T09:14:32.115Z,20.12
2022-08-28T09:17:03.704Z,19.44
2022-08-28T09:19:35.104Z,19.79
2022-08-28T09:22:08.532Z,19.53
2022-08-28T09:24:38.137Z,19.76
2022-08-28T09:27:14.152Z,20.54
2022-08-28T09:29:43.708Z,20.23
2022-08-28T09:32:23.101Z,20.47
2022-08-28T09:35:19.104Z,19.90
2022-08-28T09:37:47.199Z,20.52
2022-08-28T09:40:21.873Z,20.20
2022-08-28T09:43:27.653Z,20.77
2022-08-28T09:45:59.595Z,20.59
2022-08-28T09:48:34.124Z,20.43
2022-08-28T09:51:06.648Z,21.09
2022-08-28T09:53:38.554Z,21.22
2022-08-28T09:56:19.100Z,21.29
2022-08-28T09:58:51.610Z,21.05
2022-08-28T10:01:31.583Z,20.10
2022-08-28T10:04:19.552Z,20.65
2022-08-28T10:06:52.993Z,20.76
2022-08-28T10:09:26.662Z,20.58
2022-08-28T10:11:59.861Z,20.42
2022-08-28T10:14:41.235Z,21.01
2022-08-28T10:17:14.954Z,20.75
2022-08-28T10:19:53.761Z,20.06
2022-08-28T10:22:30.651Z,21.25
2022-08-28T10:25:07.713Z,20.79
2022-08-28T10:27:56.604Z,20.87
2022-08-28T10:30:26.976Z,21.29
2022-08-28T10:33:27.363Z,21.57
2022-08-28T10:36:04.001Z,21.73
2022-08-28T10:38:40.143Z,21.10
2022-08-28T10:41:14.178Z,21.37
2022-08-28T10:43:46.082Z,21.18
2022-08-28T10:46:22.098Z,21.13
2022-08-28T10:48:59.151Z,21.47
2022-08-28T10:51:37.641Z,20.93
2022-08-28T10:54:20.761Z,22.05
2022-08-28T10:56:56.677Z,22.22
2022-08-28T10:59:31.939Z,21.51
2022-08-28T11:02:02.591Z,22.19
2022-08-28T11:04:30.901Z,21.94
2022-08-28T11:07:05.067Z,21.24
2022-08-28T11:09:35.351Z,21.69
2022-08-28T11:12:07.022Z,21.80
2022-08-28T11:14:47.500Z,21.55
2022-08-28T11:17:38.958Z,21.78
2022-08-28T11:20:14.458Z,21.70
2022-08-28T11:22:47.043Z,21.65
2022-08-28T11:25:26.358Z,21.76
2022-08-28T11:28:16.508Z,21.89
2022-08-28T11:30:46.248Z,22.33
2022-08-28T11:33:39.095Z,21.92
2022-08-28T11:36:12.077Z,22.09
2022-08-28T11:39:22.418Z,21.73
2022-08-28T11:42:29.690Z,21.70
2022-08-28T11:44:57.758Z,21.60
2022-08-28T11:47:52.316Z,21.49
2022-08-28T11:50:29.336Z,21.79
2022-08-28T11:53:31.617Z,21.84
2022-08-28T11:56:44.610Z,22.18
2022-08-28T11:59:48.517Z,22.67
2022-08-28T12:02:58.920Z,21.64
2022-08-28T12:05:56.092Z,21.12
2022-08-28T12:09:06.595Z,21.76
2022-08-28T12:12:05.463Z,22.17
2022-08-28T12:15:07.588Z,21.86
2022-08-28T12:17:53.316Z,22.15
2022-08-28T12:21:02.466Z,22.29
2022-08-28T12:23:45.740Z,21.35
2022-08-28T12:26:23.519Z,21.83
2022-08-28T12:28:56.622Z,22.23
2022-08-28T12:32:07.087Z,22.79
2022-08-28T12:34:42.523Z,22.58
2022-08-28T12:37:30.783Z,22.88
2022-08-28T12:40:19.224Z,22.61
2022-08-28T12:42:54.891Z,22.82
2022-08-28T12:45:27.917Z,22.87
2022-08-28T12:48:00.221Z,22.63
2022-08-28T12:50:32.247Z,22.16
2022-08-28T12:53:01.728Z,22.60
2022-08-28T12:55:31.494Z,22.09
2022-08-28T12:58:03.041Z,22.15
2022-08-28T13:00:35.533Z,20.98
2022-08-28T13:03:06.090Z,21.61
2022-08-28T13:05:35.887Z,21.68
2022-08-28T13:08:05.975Z,22.03
2022-08-28T13:10:37.762Z,21.99
2022-08-28T13:13:10.989Z,22.87
2022-08-28T13:16:03.628Z,23.08
2022-08-28T13:18:43.734Z,23.01
2022-08-28T13:21:32.918Z,22.05
2022-08-28T13:24:27.567Z,21.68
2022-08-28T13:27:05.054Z,21.67
2022-08-28T13:29:34.341Z,22.01
2022-08-28T13:32:06.207Z,22.50
2022-08-28T13:34:38.706Z,22.78
2022-08-28T13:37:44.451Z,22.35
2022-08-28T13:40:30.288Z,22.48
2022-08-28T13:43:07.064Z,22.15
2022-08-28T13:45:42.849Z,21.81
2022-08-28T13:48:12.272Z,21.29
2022-08-28T13:50:41.759Z,22.23
2022-08-28T13:53:09.961Z,22.21
2022-08-28T13:55:42.605Z,21.01
2022-08-28T13:58:13.890Z,21.47
2022-08-28T14:00:45.420Z,20.94
2022-08-28T14:03:31.263Z,21.23
2022-08-28T14:06:02.597Z,21.18
2022-08-28T14:08:30.734Z,21.22
2022-08-28T14:10:58.893Z,21.03
2022-08-28T14:13:28.384Z,20.59
2022-08-28T14:15:56.973Z,21.75
2022-08-28T14:18:25.160Z,22.32
2022-08-28T14:20:53.164Z,22.23
2022-08-28T14:23:21.166Z,22.45
2022-08-28T14:25:49.209Z,22.05
2022-08-28T14:28:18.222Z,22.86
2022-08-28T14:30:49.735Z,23.84
2022-08-28T14:33:20.584Z,24.20
2022-08-28T14:35:49.937Z,23.39
2022-08-28T14:38:21.873Z,22.75
2022-08-28T14:40:53.048Z,23.29
2022-08-28T14:43:22.984Z,22.62
2022-08-28T14:45:53.753Z,22.76
2022-08-28T14:48:21.801Z,22.39
2022-08-28T14:50:50.067Z,20.83
2022-08-28T14:53:22.153Z,21.80
2022-08-28T14:55:51.348Z,21.96
2022-08-28T14:58:21.000Z,22.38
2022-08-28T15:00:50.970Z,22.45
2022-08-28T15:03:21.797Z,22.36
2022-08-28T15:05:49.873Z,21.90
2022-08-28T15:08:18.867Z,23.13
2022-08-28T15:10:48.748Z,22.96
2022-08-28T15:13:17.128Z,22.97
2022-08-28T15:15:45.621Z,22.98
2022-08-28T15:18:13.697Z,23.03
2022-08-28T15:20:46.610Z,23.57
2022-08-28T15:23:17.353Z,23.66
2022-08-28T15:25:46.307Z,24.59
2022-08-28T15:28:15.097Z,24.69
2022-08-28T15:30:43.917Z,24.33
2022-08-28T15:33:12.538Z,23.11
2022-08-28T15:35:43.935Z,22.98
2022-08-28T15:38:14.533Z,23.10
2022-08-28T15:41:01.185Z,23.27
2022-08-28T15:43:30.720Z,21.78
2022-08-28T15:45:58.939Z,22.33
2022-08-28T15:48:28.040Z,22.36
2022-08-28T15:50:59.390Z,21.91
2022-08-28T15:53:28.510Z,20.66
2022-08-28T15:55:56.831Z,22.33
2022-08-28T15:58:24.974Z,22.07
2022-08-28T16:00:53.355Z,22.14
2022-08-28T16:03:21.458Z,21.71
2022-08-28T16:05:50.905Z,21.21
2022-08-28T16:08:20.701Z,21.97
2022-08-28T16:10:49.994Z,21.83
2022-08-28T16:13:19.051Z,21.00
2022-08-28T16:15:49.405Z,21.85
2022-08-28T16:18:18.562Z,22.37
2022-08-28T16:20:47.041Z,21.85
2022-08-28T16:23:15.533Z,21.38
2022-08-28T16:25:45.294Z,20.63
2022-08-28T16:28:13.617Z,22.07
2022-08-28T16:30:43.996Z,20.26
2022-08-28T16:33:12.831Z,20.53
2022-08-28T16:35:49.436Z,20.75
2022-08-28T16:38:30.222Z,20.20
2022-08-28T16:40:59.821Z,21.52
2022-08-28T16:43:29.128Z,20.37
2022-08-28T16:45:57.264Z,20.31
2022-08-28T16:48:25.412Z,20.41
2022-08-28T16:50:53.493Z,19.71
2022-08-28T16:53:27.092Z,20.44
2022-08-28T16:55:55.679Z,19.49
2022-08-28T16:58:25.385Z,19.93
2022-08-28T17:00:55.032Z,20.44
2022-08-28T17:03:26.565Z,20.19
2022-08-28T17:05:56.097Z,20.11
2022-08-28T17:08:24.354Z,20.40
2022-08-28T17:10:52.745Z,19.83
2022-08-28T17:13:20.851Z,19.87
2022-08-28T17:15:50.516Z,19.35
2022-08-28T17:18:20.861Z,19.06
2022-08-28T17:21:06.215Z,19.42
2022-08-28T17:23:35.469Z,19.26
2022-08-28T17:26:05.354Z,19.62
2022-08-28T17:28:34.126Z,19.61
2022-08-28T17:31:05.056Z,19.49
2022-08-28T17:33:36.759Z,19.32
2022-08-28T17:36:06.300Z,19.89
2022-08-28T17:38:46.631Z,20.10
2022-08-28T17:41:17.030Z,19.48
2022-08-28T17:43:45.436Z,19.74
2022-08-28T17:46:15.123Z,19.61
2022-08-28T17:48:43.130Z,19.03
2022-08-28T17:51:23.464Z,19.33
2022-08-28T17:54:14.510Z,19.14
2022-08-28T17:56:42.817Z,19.83
2022-08-28T17:59:11.119Z,19.33
2022-08-28T18:01:41.907Z,18.99
2022-08-28T18:04:10.444Z,18.68
2022-08-28T18:06:39.515Z,19.22
2022-08-28T18:09:08.821Z,18.92
2022-08-28T18:11:37.568Z,18.88
2022-08-28T18:14:06.892Z,19.17
2022-08-28T18:16:36.582Z,19.40
2022-08-28T18:19:10.934Z,18.77
2022-08-28T18:21:39.782Z,19.23
2022-08-28T18:24:08.706Z,18.92
2022-08-28T18:26:37.015Z,18.47
2022-08-28T18:29:05.222Z,18.46
2022-08-28T18:31:37.919Z,18.26
2022-08-28T18:34:07.466Z,18.54
2022-08-28T18:36:39.813Z,18.40
2022-08-28T18:39:08.294Z,18.68
2022-08-28T18:41:43.714Z,19.15
2022-08-28T18:44:14.080Z,18.41
2022-08-28T18:46:43.020Z,18.61
2022-08-28T18:49:13.525Z,18.28
2022-08-28T18:51:43.033Z,18.09
2022-08-28T18:54:12.194Z,18.12
2022-08-28T18:56:40.968Z,18.20
2022-08-28T18:59:09.769Z,17.83
2022-08-28T19:01:41.160Z,18.59
2022-08-28T19:04:09.390Z,18.55
2022-08-28T19:06:38.749Z,18.50
2022-08-28T19:09:06.785Z,18.02
2022-08-28T19:11:35.947Z,18.27
2022-08-28T19:14:04.413Z,18.54
2022-08-28T19:16:33.498Z,18.81
2022-08-28T19:19:02.198Z,18.43
2022-08-28T19:21:30.375Z,18.21
2022-08-28T19:24:01.761Z,17.75
2022-08-28T19:26:29.997Z,17.62
2022-08-28T19:28:58.174Z,17.87
2022-08-28T19:31:28.272Z,17.51
2022-08-28T19:33:56.806Z,17.96
2022-08-28T19:36:27.160Z,17.67
2022-08-28T19:38:55.544Z,18.00
2022-08-28T19:41:25.053Z,17.40
2022-08-28T19:43:53.160Z,17.56
2022-08-28T19:46:21.632Z,17.81
2022-08-28T19:48:53.561Z,17.47
2022-08-28T19:51:24.097Z,17.47
2022-08-28T19:53:57.691Z,17.95
2022-08-28T19:56:28.178Z,17.68
2022-08-28T19:58:58.509Z,17.44
2022-08-28T20:01:29.566Z,17.49
2022-08-28T20:04:02.234Z,17.29
2022-08-28T20:06:33.037Z,17.87
2022-08-28T20:09:02.037Z,17.35
2022-08-28T20:11:34.558Z,17.36
2022-08-28T20:14:05.019Z,17.69
2022-08-28T20:16:35.933Z,17.47
2022-08-28T20:19:04.170Z,17.77
2022-08-28T20:21:37.970Z,17.50
2022-08-28T20:24:07.367Z,17.12
2022-08-28T20:26:37.371Z,17.20
2022-08-28T20:29:06.043Z,17.26
2022-08-28T20:31:34.154Z,17.57
2022-08-28T20:34:02.546Z,17.32
2022-08-28T20:36:30.651Z,17.35
2022-08-28T20:38:58.811Z,17.54
2022-08-28T20:41:27.062Z,17.33
2022-08-28T20:43:57.049Z,17.29
2022-08-28T20:46:25.626Z,17.24
2022-08-28T20:48:53.714Z,17.31
2022-08-28T20:51:42.556Z,17.51
2022-08-28T20:54:12.748Z,17.34
2022-08-28T20:56:41.102Z,17.84
2022-08-28T20:59:10.675Z,17.99
2022-08-28T21:01:38.765Z,18.01
2022-08-28T21:04:07.293Z,17.77
2022-08-28T21:06:35.638Z,17.51
2022-08-28T21:09:03.704Z,17.77
2022-08-28T21:11:32.057Z,17.63
2022-08-28T21:14:00.244Z,17.73
2022-08-28T21:16:30.176Z,17.64
2022-08-28T21:19:15.327Z,17.26
2022-08-28T21:21:45.367Z,17.28
2022-08-28T21:24:16.516Z,17.50
2022-08-28T21:26:45.509Z,17.62
2022-08-28T21:29:14.767Z,17.42
2022-08-28T21:31:45.385Z,17.83
2022-08-28T21:34:14.041Z,17.50
2022-08-28T21:36:50.258Z,17.40
2022-08-28T21:39:20.409Z,17.32
2022-08-28T21:41:48.712Z,17.50
2022-08-28T21:44:17.612Z,17.61
2022-08-28T21:46:47.112Z,17.70
2022-08-28T21:49:15.143Z,17.89
2022-08-28T21:51:43.311Z,17.66
2022-08-28T21:54:11.508Z,17.66
2022-08-28T21:56:39.523Z,17.47
2022-08-28T21:59:07.685Z,17.48
2022-08-28T22:01:36.142Z,17.69
2022-08-28T22:04:06.040Z,17.76
2022-08-28T22:06:34.688Z,17.91
2022-08-28T22:09:02.884Z,17.86
2022-08-28T22:11:31.096Z,17.78
2022-08-28T22:13:59.408Z,17.86
2022-08-28T22:16:28.570Z,17.73
2022-08-28T22:18:56.680Z,17.67
2022-08-28T22:21:44.643Z,17.81
2022-08-28T22:24:13.699Z,17.96
2022-08-28T22:26:42.320Z,17.85
2022-08-28T22:29:10.948Z,17.48
2022-08-28T22:31:45.451Z,17.61
2022-08-28T22:34:14.818Z,17.89
2022-08-28T22:36:46.476Z,17.92
2022-08-28T22:39:14.528Z,17.94
2022-08-28T22:41:42.550Z,17.90
2022-08-28T22:44:10.888Z,17.86
2022-08-28T22:46:38.864Z,17.75
2022-08-28T22:49:06.863Z,17.38
2022-08-28T22:51:35.294Z,17.38
2022-08-28T22:54:04.970Z,17.57
2022-08-28T22:56:33.025Z,17.80
2022-08-28T22:59:01.335Z,17.99
2022-08-28T23:01:29.583Z,17.75
2022-08-28T23:03:57.882Z,17.70
2022-08-28T23:06:25.916Z,17.48
2022-08-28T23:08:53.934Z,17.55
2022-08-28T23:11:24.004Z,17.15
2022-08-28T23:13:52.292Z,17.12
2022-08-28T23:16:23.954Z,17.20
2022-08-28T23:19:08.764Z,17.28
2022-08-28T23:21:39.226Z,17.61
2022-08-28T23:24:12.578Z,17.63
2022-08-28T23:26:42.057Z,17.22
2022-08-28T23:29:10.105Z,17.18
2022-08-28T23:31:41.365Z,17.40
2022-08-28T23:34:09.513Z,17.19
2022-08-28T23:36:39.303Z,17.40
2022-08-28T23:39:07.767Z,17.01
2022-08-28T23:41:36.064Z,17.29
2022-08-28T23:44:09.056Z,17.57
2022-08-28T23:46:41.281Z,17.67
2022-08-28T23:49:10.179Z,17.35
2022-08-28T23:51:38.310Z,17.41
2022-08-28T23:54:06.684Z,17.56
2022-08-28T23:56:34.711Z,17.71
2022-08-28T23:59:02.881Z,17.52
